createdAt,value
2019-05-07T00:01:55.235Z,39.97
2019-05-07T00:04:24.231Z,40.00
2019-05-07T00:06:54.207Z,40.00
2019-05-07T00:09:23.890Z,39.43
2019-05-07T00:11:53.882Z,39.33
2019-05-07T00:14:25.769Z,39.57
2019-05-07T00:16:55.439Z,39.83
2019-05-07T00:19:25.156Z,39.67
2019-05-07T00:21:55.244Z,39.60
2019-05-07T00:24:24.935Z,39.20
2019-05-07T00:26:54.620Z,39.47
2019-05-07T00:29:24.216Z,39.47
2019-05-07T00:31:53.867Z,38.60
2019-05-07T00:34:25.196Z,39.70
2019-05-07T00:37:02.607Z,39.10
2019-05-07T00:39:42.299Z,39.20
2019-05-07T00:42:16.171Z,39.03
2019-05-07T00:44:50.590Z,38.93
2019-05-07T00:47:22.109Z,38.57
2019-05-07T00:49:52.278Z,38.87
2019-05-07T00:52:24.746Z,40.17
2019-05-07T00:54:55.558Z,38.63
2019-05-07T00:57:25.912Z,38.97
2019-05-07T00:59:55.630Z,38.70
2019-05-07T01:02:25.372Z,37.90
2019-05-07T01:04:55.043Z,38.97
2019-05-07T01:07:24.731Z,38.27
2019-05-07T01:09:54.397Z,38.50
2019-05-07T01:12:24.060Z,38.90
2019-05-07T01:14:55.104Z,38.60
2019-05-07T01:17:24.766Z,38.67
2019-05-07T01:19:54.421Z,39.10
2019-05-07T01:22:25.400Z,39.00
2019-05-07T01:24:57.607Z,37.87
2019-05-07T01:27:28.516Z,38.63
2019-05-07T01:29:58.323Z,38.77
2019-05-07T01:32:29.474Z,38.70
2019-05-07T01:35:02.450Z,38.33
2019-05-07T01:37:35.141Z,38.37
2019-05-07T01:40:05.341Z,38.10
2019-05-07T01:42:36.729Z,38.80
2019-05-07T01:45:09.478Z,39.03
2019-05-07T01:47:38.997Z,38.53
2019-05-07T01:50:09.058Z,38.30
2019-05-07T01:52:38.744Z,37.90
2019-05-07T01:55:10.104Z,38.30
2019-05-07T01:57:41.982Z,37.73
2019-05-07T02:00:13.057Z,38.63
2019-05-07T02:02:44.577Z,38.23
2019-05-07T02:05:16.401Z,37.87
2019-05-07T02:07:47.635Z,38.63
2019-05-07T02:10:35.296Z,38.03
2019-05-07T02:13:04.979Z,38.13
2019-05-07T02:15:34.684Z,38.20
2019-05-07T02:18:04.551Z,38.00
2019-05-07T02:20:38.946Z,37.83
2019-05-07T02:23:08.864Z,38.83
2019-05-07T02:25:38.530Z,38.53
2019-05-07T02:28:08.347Z,38.30
2019-05-07T02:30:38.078Z,38.07
2019-05-07T02:33:09.268Z,38.33
2019-05-07T02:35:39.026Z,37.73
2019-05-07T02:38:13.431Z,38.47
2019-05-07T02:40:53.416Z,38.00
2019-05-07T02:43:23.386Z,38.13
2019-05-07T02:46:15.980Z,37.93
2019-05-07T02:48:33.448Z,38.93
2019-05-07T02:51:04.951Z,38.30
2019-05-07T02:53:36.241Z,38.00
2019-05-07T02:56:07.075Z,38.23
2019-05-07T02:58:36.757Z,38.43
2019-05-07T03:01:07.760Z,38.80
2019-05-07T03:03:37.746Z,38.20
2019-05-07T03:06:07.397Z,38.27
2019-05-07T03:08:36.987Z,38.63
2019-05-07T03:11:07.966Z,38.53
2019-05-07T03:13:39.133Z,38.50
2019-05-07T03:16:09.574Z,38.97
2019-05-07T03:18:43.512Z,37.97
2019-05-07T03:21:16.860Z,39.17
2019-05-07T03:23:53.659Z,38.00
2019-05-07T03:26:24.788Z,38.87
2019-05-07T03:28:58.806Z,38.50
2019-05-07T03:31:36.048Z,38.13
2019-05-07T03:34:07.361Z,38.10
2019-05-07T03:36:39.229Z,38.70
2019-05-07T03:39:09.514Z,39.40
2019-05-07T03:41:43.074Z,38.77
2019-05-07T03:44:14.160Z,38.87
2019-05-07T03:46:54.560Z,38.50
2019-05-07T03:49:29.105Z,38.53
2019-05-07T03:51:59.156Z,38.40
2019-05-07T03:54:28.821Z,37.93
2019-05-07T03:57:07.432Z,38.50
2019-05-07T03:59:34.273Z,38.27
2019-05-07T04:02:03.463Z,38.87
2019-05-07T04:04:33.474Z,38.90
2019-05-07T04:07:03.781Z,38.47
2019-05-07T04:09:33.653Z,38.70
2019-05-07T04:12:04.981Z,38.73
2019-05-07T04:14:34.920Z,38.33
2019-05-07T04:17:16.687Z,39.37
2019-05-07T04:19:36.349Z,38.20
2019-05-07T04:22:06.020Z,38.70
2019-05-07T04:24:37.339Z,38.27
2019-05-07T04:27:25.132Z,38.43
2019-05-07T04:29:54.758Z,38.53
2019-05-07T04:32:26.069Z,38.50
2019-05-07T04:35:03.576Z,37.77
2019-05-07T04:37:33.145Z,38.17
2019-05-07T04:40:03.433Z,39.63
2019-05-07T04:42:33.601Z,39.23
2019-05-07T04:45:05.225Z,38.33
2019-05-07T04:47:42.897Z,39.43
2019-05-07T04:50:13.645Z,39.53
2019-05-07T04:52:43.660Z,39.67
2019-05-07T04:55:14.087Z,39.47
2019-05-07T04:57:44.105Z,39.20
2019-05-07T05:00:15.730Z,39.07
2019-05-07T05:02:52.679Z,39.33
2019-05-07T05:05:23.536Z,39.97
2019-05-07T05:07:53.652Z,39.83
2019-05-07T05:10:23.504Z,39.43
2019-05-07T05:12:53.853Z,39.60
2019-05-07T05:15:23.640Z,39.37
2019-05-07T05:17:54.278Z,39.70
2019-05-07T05:20:34.670Z,40.27
2019-05-07T05:23:23.935Z,39.27
2019-05-07T05:25:55.771Z,38.73
2019-05-07T05:28:26.096Z,40.00
2019-05-07T05:30:57.314Z,39.37
2019-05-07T05:33:26.998Z,38.60
2019-05-07T05:36:03.027Z,39.10
2019-05-07T05:38:33.229Z,39.70
2019-05-07T05:41:02.999Z,39.87
2019-05-07T05:43:34.279Z,39.80
2019-05-07T05:46:14.389Z,38.90
2019-05-07T05:48:44.348Z,38.87
2019-05-07T05:51:27.509Z,40.07
2019-05-07T05:53:58.833Z,39.07
2019-05-07T05:56:43.832Z,39.40
2019-05-07T05:59:46.577Z,39.50
2019-05-07T06:02:06.656Z,39.77
2019-05-07T06:04:42.041Z,39.77
2019-05-07T06:07:22.739Z,39.70
2019-05-07T06:09:54.202Z,39.63
2019-05-07T06:12:28.072Z,39.90
2019-05-07T06:15:06.354Z,39.50
2019-05-07T06:17:37.529Z,39.67
2019-05-07T06:20:22.773Z,40.03
2019-05-07T06:23:12.700Z,39.07
2019-05-07T06:25:43.267Z,39.97
2019-05-07T06:28:14.384Z,39.83
2019-05-07T06:30:44.136Z,40.27
2019-05-07T06:33:13.823Z,39.77
2019-05-07T06:35:43.477Z,39.77
2019-05-07T06:38:22.019Z,39.90
2019-05-07T06:41:12.068Z,40.60
2019-05-07T06:43:45.963Z,39.70
2019-05-07T06:46:15.652Z,40.53
2019-05-07T06:48:46.383Z,40.20
2019-05-07T06:51:17.643Z,41.70
2019-05-07T06:53:47.443Z,40.07
2019-05-07T06:56:18.840Z,40.50
2019-05-07T06:58:57.063Z,40.63
2019-05-07T07:01:28.377Z,40.33
2019-05-07T07:03:59.804Z,41.00
2019-05-07T07:06:35.107Z,39.73
2019-05-07T07:09:24.972Z,40.53
2019-05-07T07:12:14.337Z,40.87
2019-05-07T07:14:44.063Z,40.10
2019-05-07T07:17:13.747Z,40.57
2019-05-07T07:19:43.424Z,40.50
2019-05-07T07:22:13.179Z,40.83
2019-05-07T07:24:42.792Z,41.17
2019-05-07T07:27:13.145Z,40.50
2019-05-07T07:29:47.792Z,40.70
2019-05-07T07:32:19.125Z,41.33
2019-05-07T07:34:53.101Z,40.63
2019-05-07T07:37:23.633Z,41.43
2019-05-07T07:39:54.957Z,40.77
2019-05-07T07:42:25.494Z,40.77
2019-05-07T07:45:13.173Z,40.40
2019-05-07T07:47:42.819Z,40.50
2019-05-07T07:50:13.792Z,40.47
2019-05-07T07:53:02.776Z,41.10
2019-05-07T07:55:34.053Z,41.27
2019-05-07T07:58:12.443Z,40.83
2019-05-07T08:00:48.935Z,40.40
2019-05-07T08:03:18.620Z,40.80
2019-05-07T08:05:51.841Z,40.63
2019-05-07T08:08:22.010Z,41.07
2019-05-07T08:10:52.118Z,40.03
2019-05-07T08:13:22.902Z,39.77
2019-05-07T08:15:52.922Z,41.20
2019-05-07T08:18:22.645Z,40.53
2019-05-07T08:20:52.974Z,39.90
2019-05-07T08:23:22.758Z,40.63
2019-05-07T08:25:52.759Z,40.80
2019-05-07T08:28:23.495Z,39.97
2019-05-07T08:30:57.408Z,40.00
2019-05-07T08:33:34.800Z,40.43
2019-05-07T08:36:18.155Z,40.60
2019-05-07T08:38:53.212Z,40.70
2019-05-07T08:41:25.843Z,41.10
2019-05-07T08:44:09.187Z,40.83
2019-05-07T08:46:48.932Z,39.77
2019-05-07T08:49:33.432Z,39.83
2019-05-07T08:52:03.101Z,41.17
2019-05-07T08:54:32.974Z,40.63
2019-05-07T08:57:04.061Z,40.30
2019-05-07T08:59:35.096Z,40.37
2019-05-07T09:02:05.660Z,40.83
2019-05-07T09:04:35.318Z,41.00
2019-05-07T09:07:05.824Z,40.20
2019-05-07T09:09:35.481Z,40.90
2019-05-07T09:12:05.454Z,39.93
2019-05-07T09:14:36.777Z,40.40
2019-05-07T09:17:06.435Z,40.13
2019-05-07T09:19:47.333Z,40.40
2019-05-07T09:22:09.109Z,39.97
2019-05-07T09:24:38.786Z,40.70
2019-05-07T09:27:14.192Z,39.80
2019-05-07T09:29:56.638Z,40.93
2019-05-07T09:32:27.966Z,40.70
2019-05-07T09:35:04.300Z,40.63
2019-05-07T09:37:34.612Z,40.30
2019-05-07T09:40:06.374Z,40.57
2019-05-07T09:42:37.539Z,41.43
2019-05-07T09:45:09.337Z,41.17
2019-05-07T09:47:39.003Z,40.97
2019-05-07T09:50:09.269Z,41.00
2019-05-07T09:52:38.963Z,41.07
2019-05-07T09:55:14.883Z,42.33
2019-05-07T09:57:42.488Z,41.17
2019-05-07T10:00:13.999Z,40.93
2019-05-07T10:02:43.922Z,40.13
2019-05-07T10:05:13.885Z,41.10
2019-05-07T10:07:44.619Z,41.30
2019-05-07T10:10:14.794Z,41.60
2019-05-07T10:13:02.359Z,41.93
2019-05-07T10:15:34.626Z,40.97
2019-05-07T10:18:12.422Z,41.10
2019-05-07T10:20:44.741Z,41.33
2019-05-07T10:23:22.780Z,41.33
2019-05-07T10:25:55.102Z,41.47
2019-05-07T10:28:27.138Z,41.30
2019-05-07T10:30:56.893Z,41.63
2019-05-07T10:33:27.568Z,41.60
2019-05-07T10:35:58.232Z,41.20
2019-05-07T10:38:28.406Z,41.20
2019-05-07T10:40:58.064Z,41.17
2019-05-07T10:43:29.222Z,41.83
2019-05-07T10:46:02.376Z,42.07
2019-05-07T10:48:34.012Z,41.80
2019-05-07T10:51:05.877Z,42.20
2019-05-07T10:53:36.022Z,42.07
2019-05-07T10:56:07.366Z,41.43
2019-05-07T10:58:37.192Z,41.87
2019-05-07T11:01:32.761Z,41.63
2019-05-07T11:04:02.350Z,41.23
2019-05-07T11:06:32.456Z,41.27
2019-05-07T11:09:02.082Z,41.40
2019-05-07T11:11:31.976Z,41.33
2019-05-07T11:14:21.729Z,41.80
2019-05-07T11:16:59.738Z,41.30
2019-05-07T11:19:29.495Z,41.43
2019-05-07T11:21:59.851Z,41.37
2019-05-07T11:24:32.153Z,41.00
2019-05-07T11:27:02.456Z,41.57
2019-05-07T11:29:33.822Z,41.90
2019-05-07T11:32:03.922Z,41.63
2019-05-07T11:34:36.806Z,41.03
2019-05-07T11:37:07.163Z,41.90
2019-05-07T11:39:36.857Z,41.90
2019-05-07T11:42:12.701Z,42.17
2019-05-07T11:44:42.505Z,41.47
2019-05-07T11:47:22.649Z,41.60
2019-05-07T11:50:12.015Z,40.93
2019-05-07T11:52:52.399Z,42.23
2019-05-07T11:55:22.443Z,41.90
2019-05-07T11:57:55.856Z,41.93
2019-05-07T12:00:32.446Z,41.63
2019-05-07T12:03:03.952Z,42.17
2019-05-07T12:05:34.018Z,41.40
2019-05-07T12:08:04.219Z,41.57
2019-05-07T12:10:33.881Z,42.37
2019-05-07T12:13:03.588Z,41.43
2019-05-07T12:15:33.572Z,42.23
2019-05-07T12:18:03.734Z,42.07
2019-05-07T12:20:33.779Z,41.47
2019-05-07T12:23:03.544Z,41.57
2019-05-07T12:25:33.476Z,41.77
2019-05-07T12:28:06.829Z,41.97
2019-05-07T12:30:38.777Z,42.00
2019-05-07T12:33:13.066Z,41.70
2019-05-07T12:35:42.738Z,41.80
2019-05-07T12:38:12.853Z,41.23
2019-05-07T12:40:43.228Z,41.03
2019-05-07T12:43:12.860Z,41.37
2019-05-07T12:45:42.498Z,41.07
2019-05-07T12:48:14.226Z,41.23
2019-05-07T12:50:43.547Z,40.90
2019-05-07T12:53:14.892Z,40.87
2019-05-07T12:55:46.270Z,40.50
2019-05-07T12:58:15.934Z,41.83
2019-05-07T13:00:59.424Z,40.30
2019-05-07T13:03:51.935Z,41.20
2019-05-07T13:06:23.333Z,41.60
2019-05-07T13:09:14.548Z,41.30
2019-05-07T13:11:45.030Z,40.97
2019-05-07T13:14:21.788Z,41.50
2019-05-07T13:16:52.382Z,41.47
2019-05-07T13:19:26.729Z,41.47
2019-05-07T13:21:58.997Z,41.10
2019-05-07T13:24:32.126Z,41.80
2019-05-07T13:27:03.306Z,41.57
2019-05-07T13:29:33.646Z,41.43
2019-05-07T13:32:05.497Z,41.40
2019-05-07T13:34:35.664Z,41.00
2019-05-07T13:37:23.038Z,41.57
2019-05-07T13:39:55.250Z,41.90
2019-05-07T13:42:43.506Z,41.83
2019-05-07T13:45:13.024Z,41.80
2019-05-07T13:47:42.804Z,41.93
2019-05-07T13:50:18.289Z,41.40
2019-05-07T13:52:48.372Z,41.40
2019-05-07T13:55:18.067Z,43.33
2019-05-07T13:57:47.755Z,42.30
2019-05-07T14:00:21.850Z,42.57
2019-05-07T14:02:52.019Z,41.80
2019-05-07T14:05:23.105Z,42.07
2019-05-07T14:07:52.781Z,42.53
2019-05-07T14:10:22.625Z,42.07
2019-05-07T14:12:52.324Z,42.13
2019-05-07T14:15:23.150Z,42.50
2019-05-07T14:17:55.119Z,43.23
2019-05-07T14:20:25.015Z,42.87
2019-05-07T14:22:54.704Z,42.93
2019-05-07T14:25:24.554Z,42.63
2019-05-07T14:28:13.483Z,43.47
2019-05-07T14:30:43.267Z,43.10
2019-05-07T14:33:14.570Z,43.10
2019-05-07T14:35:52.067Z,42.13
2019-05-07T14:38:26.621Z,43.23
2019-05-07T14:40:56.655Z,42.60
2019-05-07T14:43:32.472Z,43.03
2019-05-07T14:46:03.715Z,42.40
2019-05-07T14:48:36.105Z,42.53
2019-05-07T14:51:05.152Z,43.33
2019-05-07T14:53:34.849Z,42.17
2019-05-07T14:56:06.583Z,42.37
2019-05-07T14:58:37.273Z,43.27
2019-05-07T15:01:07.313Z,43.60
2019-05-07T15:03:36.970Z,43.10
2019-05-07T15:06:07.148Z,42.47
2019-05-07T15:08:36.835Z,43.33
2019-05-07T15:11:08.132Z,43.83
2019-05-07T15:13:39.433Z,42.83
2019-05-07T15:16:09.109Z,43.77
2019-05-07T15:18:43.040Z,44.13
2019-05-07T15:21:14.574Z,43.40
2019-05-07T15:23:52.990Z,43.90
2019-05-07T15:26:24.781Z,43.87
2019-05-07T15:28:56.127Z,44.37
2019-05-07T15:31:36.459Z,45.03
2019-05-07T15:34:06.278Z,43.90
2019-05-07T15:36:36.600Z,44.53
2019-05-07T15:39:07.945Z,44.13
2019-05-07T15:41:37.624Z,44.20
2019-05-07T15:44:07.279Z,44.13
2019-05-07T15:46:37.136Z,44.03
2019-05-07T15:49:06.800Z,43.53
2019-05-07T15:51:36.460Z,45.03
2019-05-07T15:54:06.703Z,44.87
2019-05-07T15:56:36.368Z,44.63
2019-05-07T15:59:07.524Z,43.10
2019-05-07T16:01:38.850Z,43.80
2019-05-07T16:04:21.765Z,43.50
2019-05-07T16:06:42.599Z,43.43
2019-05-07T16:09:13.064Z,43.07
2019-05-07T16:11:43.202Z,42.53
2019-05-07T16:14:14.963Z,43.20
2019-05-07T16:16:46.586Z,43.37
2019-05-07T16:19:17.891Z,42.90
2019-05-07T16:21:47.574Z,43.33
2019-05-07T16:24:17.301Z,43.47
2019-05-07T16:26:47.100Z,43.13
2019-05-07T16:29:16.834Z,42.70
2019-05-07T16:31:48.902Z,42.10
2019-05-07T16:34:18.916Z,43.23
2019-05-07T16:36:49.013Z,43.13
2019-05-07T16:39:18.816Z,43.30
2019-05-07T16:41:52.631Z,42.23
2019-05-07T16:44:22.629Z,42.80
2019-05-07T16:46:53.472Z,42.27
2019-05-07T16:49:23.258Z,43.57
2019-05-07T16:51:52.767Z,42.47
2019-05-07T16:54:22.434Z,42.73
2019-05-07T16:57:12.043Z,43.37
2019-05-07T16:59:42.723Z,43.27
2019-05-07T17:02:14.130Z,43.57
2019-05-07T17:04:52.042Z,43.13
2019-05-07T17:07:22.077Z,44.40
2019-05-07T17:09:53.252Z,43.53
2019-05-07T17:12:23.032Z,44.30
2019-05-07T17:14:52.652Z,42.60
2019-05-07T17:17:22.498Z,42.73
2019-05-07T17:19:53.935Z,42.73
2019-05-07T17:22:23.811Z,43.73
2019-05-07T17:24:53.476Z,43.90
2019-05-07T17:27:23.158Z,43.27
2019-05-07T17:29:52.747Z,42.33
2019-05-07T17:32:22.917Z,42.93
2019-05-07T17:34:52.915Z,43.00
2019-05-07T17:37:22.947Z,42.50
2019-05-07T17:39:53.931Z,42.53
2019-05-07T17:42:23.627Z,43.43
2019-05-07T17:45:02.822Z,42.53
2019-05-07T17:47:32.246Z,42.67
2019-05-07T17:50:05.435Z,41.80
2019-05-07T17:52:35.236Z,43.67
2019-05-07T17:55:10.337Z,43.37
2019-05-07T17:57:38.802Z,42.33
2019-05-07T18:00:10.330Z,42.33
2019-05-07T18:02:58.226Z,42.57
2019-05-07T18:05:27.967Z,42.57
2019-05-07T18:07:57.617Z,41.73
2019-05-07T18:10:27.455Z,42.63
2019-05-07T18:12:57.119Z,42.03
2019-05-07T18:15:26.897Z,42.10
2019-05-07T18:18:15.667Z,42.43
2019-05-07T18:20:45.424Z,42.00
2019-05-07T18:23:17.079Z,44.90
2019-05-07T18:25:48.537Z,42.87
2019-05-07T18:28:18.605Z,43.00
2019-05-07T18:30:48.325Z,41.57
2019-05-07T18:33:22.096Z,41.67
2019-05-07T18:35:52.727Z,41.93
2019-05-07T18:38:22.647Z,41.37
2019-05-07T18:40:53.028Z,41.83
2019-05-07T18:43:22.778Z,41.80
2019-05-07T18:45:52.652Z,41.13
2019-05-07T18:48:29.569Z,42.10
2019-05-07T18:50:59.434Z,41.20
2019-05-07T18:53:29.103Z,42.23
2019-05-07T18:55:58.798Z,42.03
2019-05-07T18:58:28.567Z,42.43
2019-05-07T19:01:10.893Z,41.77
2019-05-07T19:03:42.027Z,41.33
2019-05-07T19:06:13.403Z,42.47
2019-05-07T19:08:43.387Z,41.77
2019-05-07T19:11:13.060Z,42.23
2019-05-07T19:13:42.710Z,41.33
2019-05-07T19:16:12.795Z,42.73
2019-05-07T19:18:43.244Z,41.00
2019-05-07T19:21:16.792Z,41.40
2019-05-07T19:23:46.457Z,41.53
2019-05-07T19:26:16.137Z,42.10
2019-05-07T19:28:45.891Z,41.97
2019-05-07T19:31:15.614Z,40.83
2019-05-07T19:33:45.520Z,41.33
2019-05-07T19:36:15.782Z,41.53
2019-05-07T19:38:45.431Z,41.10
2019-05-07T19:41:15.094Z,42.30
2019-05-07T19:43:44.791Z,41.43
2019-05-07T19:46:14.483Z,41.93
2019-05-07T19:48:45.201Z,41.53
2019-05-07T19:51:14.920Z,41.00
2019-05-07T19:53:44.588Z,41.87
2019-05-07T19:56:21.943Z,42.27
2019-05-07T19:58:52.618Z,42.27
2019-05-07T20:01:24.516Z,41.87
2019-05-07T20:03:54.200Z,42.10
2019-05-07T20:06:25.366Z,41.80
2019-05-07T20:09:08.123Z,41.90
2019-05-07T20:11:46.032Z,42.27
2019-05-07T20:14:15.863Z,42.27
2019-05-07T20:16:45.586Z,41.73
2019-05-07T20:19:15.320Z,41.70
2019-05-07T20:21:45.167Z,41.87
2019-05-07T20:24:14.860Z,42.90
2019-05-07T20:26:46.421Z,41.43
2019-05-07T20:29:16.098Z,41.73
2019-05-07T20:31:50.296Z,41.77
2019-05-07T20:34:22.021Z,41.97
2019-05-07T20:36:56.746Z,41.90
2019-05-07T20:39:26.544Z,41.67
2019-05-07T20:41:56.208Z,42.37
2019-05-07T20:44:26.109Z,41.60
2019-05-07T20:46:55.794Z,41.60
2019-05-07T20:49:27.361Z,41.50
2019-05-07T20:51:57.043Z,41.73
2019-05-07T20:54:42.059Z,43.03
2019-05-07T20:57:13.383Z,41.80
2019-05-07T20:59:44.531Z,41.90
2019-05-07T21:02:14.219Z,42.67
2019-05-07T21:04:43.945Z,41.73
2019-05-07T21:07:13.614Z,42.37
2019-05-07T21:09:43.329Z,42.03
2019-05-07T21:12:14.007Z,42.07
2019-05-07T21:14:43.757Z,41.80
2019-05-07T21:17:13.976Z,41.70
2019-05-07T21:19:47.110Z,41.37
2019-05-07T21:22:16.837Z,41.60
2019-05-07T21:24:47.014Z,41.27
2019-05-07T21:27:16.843Z,42.07
2019-05-07T21:29:46.494Z,42.10
2019-05-07T21:32:16.192Z,41.60
2019-05-07T21:34:45.846Z,42.23
2019-05-07T21:37:17.164Z,41.80
2019-05-07T21:39:46.795Z,42.40
2019-05-07T21:42:16.504Z,41.83
2019-05-07T21:44:46.191Z,41.57
2019-05-07T21:47:15.879Z,42.87
2019-05-07T21:49:45.526Z,42.03
2019-05-07T21:52:15.254Z,41.10
2019-05-07T21:54:58.375Z,42.43
2019-05-07T21:57:41.708Z,42.23
2019-05-07T22:00:15.029Z,41.97
2019-05-07T22:02:44.685Z,41.90
2019-05-07T22:05:15.457Z,42.43
2019-05-07T22:07:45.150Z,42.17
2019-05-07T22:10:15.085Z,41.87
2019-05-07T22:12:44.742Z,41.93
2019-05-07T22:15:14.717Z,41.43
2019-05-07T22:17:44.523Z,42.20
2019-05-07T22:20:14.173Z,42.47
2019-05-07T22:22:43.859Z,42.10
2019-05-07T22:25:13.554Z,41.80
2019-05-07T22:27:43.236Z,42.53
2019-05-07T22:30:23.079Z,41.77
2019-05-07T22:33:02.460Z,41.83
2019-05-07T22:35:33.982Z,42.57
2019-05-07T22:38:03.927Z,42.50
2019-05-07T22:40:33.628Z,42.47
2019-05-07T22:43:03.306Z,41.80
2019-05-07T22:45:33.041Z,41.27
2019-05-07T22:48:02.936Z,42.43
2019-05-07T22:50:33.245Z,41.93
2019-05-07T22:53:03.250Z,41.93
2019-05-07T22:55:32.868Z,41.30
2019-05-07T22:58:23.126Z,41.20
2019-05-07T23:00:55.136Z,41.80
2019-05-07T23:03:24.818Z,41.30
2019-05-07T23:05:56.161Z,41.27
2019-05-07T23:08:27.464Z,41.63
2019-05-07T23:10:57.198Z,41.10
2019-05-07T23:13:27.108Z,40.37
2019-05-07T23:15:56.887Z,41.50
2019-05-07T23:18:31.767Z,41.50
2019-05-07T23:21:01.116Z,40.67
2019-05-07T23:23:32.568Z,40.73
2019-05-07T23:26:02.973Z,41.47
2019-05-07T23:28:32.974Z,41.17
2019-05-07T23:31:02.659Z,41.13
2019-05-07T23:33:32.394Z,41.17
2019-05-07T23:36:02.336Z,40.50
2019-05-07T23:38:33.652Z,40.57
2019-05-07T23:41:04.951Z,40.27
2019-05-07T23:43:34.698Z,40.93
2019-05-07T23:46:04.373Z,40.97
2019-05-07T23:48:34.047Z,41.07
2019-05-07T23:51:22.808Z,40.90
2019-05-07T23:53:52.464Z,41.27
2019-05-07T23:56:23.881Z,40.97
2019-05-07T23:58:55.107Z,40.90
